Time;durP1;ratioP1;P1;durP2;ratioP2;P2;SDS_P1;SDS_P2;PMS_P1;PMS_P2;Temp;Humidity;BMP_temperature;BMP_pressure;BME280_temperature;BME280_humidity;BME280_pressure;Samples;Min_cycle;Max_cycle;Signal;HPM_P1;HPM_P2
2021/12/22 00:02:09;;;;;;;6.80;2.22;;;;;;;-14.25;100.00;99630.16;5043763;28;20094;-61
2021/12/22 00:04:56;;;;;;;8.45;2.80;;;;;;;-14.46;100.00;99605.69;5029286;28;20051;-61
2021/12/22 00:07:41;;;;;;;9.37;3.70;;;;;;;-14.21;100.00;99616.03;5056975;28;20099;-64
2021/12/22 00:10:26;;;;;;;8.20;3.40;;;;;;;-14.03;100.00;99618.19;5044328;28;20052;-63
2021/12/22 00:13:11;;;;;;;8.90;3.37;;;;;;;-13.87;100.00;99625.25;5041543;28;20056;-62
2021/12/22 00:15:57;;;;;;;9.83;3.37;;;;;;;-13.97;100.00;99618.63;5001924;28;20048;-63
2021/12/22 00:18:43;;;;;;;9.00;3.37;;;;;;;-14.27;100.00;99623.19;5041323;28;20137;-63
2021/12/22 00:21:29;;;;;;;8.67;3.10;;;;;;;-14.07;100.00;99628.94;5028748;28;20161;-61
2021/12/22 00:24:18;;;;;;;11.73;3.83;;;;;;;-13.86;100.00;99629.59;5031319;28;20114;-64
2021/12/22 00:27:03;;;;;;;9.65;4.07;;;;;;;-13.91;100.00;99634.34;5039619;28;20575;-58
2021/12/22 00:29:50;;;;;;;7.27;3.00;;;;;;;-13.76;100.00;99635.44;5042232;28;20051;-63
2021/12/22 00:32:37;;;;;;;11.93;3.80;;;;;;;-13.72;100.00;99626.34;5056458;28;20141;-62
2021/12/22 00:35:27;;;;;;;10.83;3.57;;;;;;;-13.70;100.00;99601.88;5042357;28;20067;-63
2021/12/22 00:38:15;;;;;;;9.20;3.00;;;;;;;-13.59;99.88;99617.13;5028949;28;20456;-60
2021/12/22 00:41:00;;;;;;;9.50;3.53;;;;;;;-13.47;98.95;99619.63;5024773;28;20056;-58
2021/12/22 00:43:45;;;;;;;7.80;3.17;;;;;;;-13.49;99.14;99608.47;5044453;28;20428;-63
2021/12/22 00:46:30;;;;;;;8.17;3.00;;;;;;;-13.60;98.25;99602.63;5028866;28;20059;-61
2021/12/22 00:49:14;;;;;;;9.43;3.03;;;;;;;-13.46;97.82;99606.16;5047043;28;20055;-63
2021/12/22 00:51:59;;;;;;;8.50;3.05;;;;;;;-13.39;98.54;99604.13;5031624;28;20056;-61
2021/12/22 00:54:44;;;;;;;8.47;3.83;;;;;;;-13.44;97.19;99600.38;5047263;28;20075;-62
2021/12/22 00:57:31;;;;;;;6.53;3.20;;;;;;;-13.57;97.28;99596.84;5048761;28;20106;-61
2021/12/22 01:00:20;;;;;;;13.43;4.17;;;;;;;-13.96;98.53;99607.69;5046320;28;20135;-61
2021/12/22 01:03:05;;;;;;;9.03;3.40;;;;;;;-13.97;99.02;99603.34;5033339;28;20118;-62
2021/12/22 01:05:51;;;;;;;9.90;3.70;;;;;;;-13.77;98.93;99608.19;5018383;28;20048;-63
2021/12/22 01:08:36;;;;;;;10.63;4.30;;;;;;;-13.66;99.27;99616.59;5032547;28;20102;-67
2021/12/22 01:11:21;;;;;;;11.57;4.22;;;;;;;-13.65;98.16;99609.03;5046611;28;20048;-63
2021/12/22 01:14:07;;;;;;;11.53;4.03;;;;;;;-13.86;99.33;99615.19;5026366;28;20162;-55
2021/12/22 01:16:58;;;;;;;9.17;3.73;;;;;;;-13.83;98.92;99607.75;5033620;28;20131;-61
2021/12/22 01:22:46;;;;;;;11.97;4.07;;;;;;;-13.59;99.41;99618.78;5042969;28;20079;-64
2021/12/22 01:25:37;;;;;;;11.20;4.23;;;;;;;-13.74;98.90;99625.38;5061165;28;20624;-64
2021/12/22 01:28:24;;;;;;;8.83;4.00;;;;;;;-13.88;99.77;99620.94;5054227;28;20496;-60
2021/12/22 01:31:15;;;;;;;9.73;4.20;;;;;;;-13.78;99.43;99629.34;5030424;28;20535;-62
2021/12/22 01:33:59;;;;;;;11.80;3.43;;;;;;;-14.16;99.48;99628.28;5026610;28;20110;-62
2021/12/22 01:36:46;;;;;;;9.48;4.43;;;;;;;-14.31;100.00;99633.94;5046646;28;20563;-63
2021/12/22 01:39:30;;;;;;;10.77;3.73;;;;;;;-14.02;100.00;99627.59;5030892;28;20060;-62
2021/12/22 01:42:15;;;;;;;13.25;4.30;;;;;;;-13.83;100.00;99625.59;5043692;28;20044;-60
2021/12/22 01:51:08;;;;;;;10.38;3.85;;;;;;;-13.84;100.00;99625.47;5040046;28;20051;-59
2021/12/22 01:53:57;;;;;;;;;;;;;;;-13.78;99.78;99619.16;5046018;28;20056;-61
2021/12/22 01:56:43;;;;;;;10.10;4.13;;;;;;;-13.71;99.95;99620.47;5059232;28;20404;-61
2021/12/22 01:59:29;;;;;;;9.87;4.63;;;;;;;-13.69;99.89;99621.47;5045638;28;20048;-59
2021/12/22 02:02:18;;;;;;;12.63;4.77;;;;;;;-13.81;98.72;99611.28;5055822;28;20074;-59
2021/12/22 02:05:03;;;;;;;19.67;5.28;;;;;;;-13.73;99.00;99619.50;5057973;28;20083;-57
2021/12/22 02:07:49;;;;;;;12.57;4.40;;;;;;;-13.69;99.35;99606.19;5042450;28;20102;-60
2021/12/22 02:10:40;;;;;;;13.40;4.40;;;;;;;-13.86;98.63;99611.78;5044452;28;20048;-64
2021/12/22 02:13:31;;;;;;;17.10;4.67;;;;;;;-13.97;99.60;99597.38;5044542;28;20090;-61
2021/12/22 02:16:20;;;;;;;12.97;5.10;;;;;;;-13.76;100.00;99604.88;5042544;28;20084;-61
2021/12/22 02:19:07;;;;;;;16.93;5.90;;;;;;;-13.87;100.00;99612.53;5044275;28;20140;-62
2021/12/22 02:21:56;;;;;;;15.53;5.27;;;;;;;-13.96;100.00;99616.97;5047628;28;20051;-63
2021/12/22 02:24:51;;;;;;;21.00;5.73;;;;;;;-14.10;100.00;99622.72;5055594;28;20137;-62
2021/12/22 02:27:49;;;;;;;13.70;5.22;;;;;;;-14.29;100.00;99612.91;5017612;28;20121;-62
2021/12/22 02:30:34;;;;;;;14.27;5.47;;;;;;;-14.09;100.00;99635.56;5056948;28;20596;-62
2021/12/22 02:33:25;;;;;;;15.23;5.13;;;;;;;-13.98;100.00;99631.25;5031252;28;20694;-61
2021/12/22 02:36:23;;;;;;;18.43;6.63;;;;;;;-13.92;100.00;99624.94;5031414;28;20148;-62
2021/12/22 02:39:12;;;;;;;16.83;5.53;;;;;;;-13.83;100.00;99632.34;5027660;28;20118;-61
2021/12/22 02:41:57;;;;;;;15.37;6.07;;;;;;;-13.77;100.00;99638.75;5041117;28;20198;-63
2021/12/22 02:44:41;;;;;;;14.45;5.88;;;;;;;-13.72;100.00;99639.09;5031291;28;20056;-63
2021/12/22 02:47:28;;;;;;;10.27;4.00;;;;;;;-13.93;100.00;99624.84;5043637;28;20389;-62
2021/12/22 02:50:15;;;;;;;10.90;4.23;;;;;;;-14.15;100.00;99641.88;5046436;28;20060;-65
2021/12/22 02:53:09;;;;;;;19.30;6.73;;;;;;;-14.06;100.00;99638.34;5046798;28;20048;-62
2021/12/22 02:56:05;;;;;;;20.33;7.10;;;;;;;-13.85;100.00;99646.63;5061108;28;20048;-58
2021/12/22 03:02:07;;;;;;;17.70;6.63;;;;;;;-13.44;100.00;99638.59;5031967;28;20095;-57
2021/12/22 03:04:54;;;;;;;17.90;6.53;;;;;;;-13.39;100.00;99632.16;5046827;28;20436;-60
2021/12/22 03:07:39;;;;;;;24.27;7.70;;;;;;;-13.41;100.00;99632.81;5044086;28;20110;-63
2021/12/22 03:10:24;;;;;;;22.63;7.27;;;;;;;-13.31;100.00;99627.56;5045381;28;20090;-57
2021/12/22 03:13:09;;;;;;;19.45;7.20;;;;;;;-13.48;100.00;99631.53;5035864;28;20358;-58
2021/12/22 03:15:53;;;;;;;22.42;6.47;;;;;;;-13.85;100.00;99627.13;5044454;28;20079;-61
2021/12/22 03:18:38;;;;;;;21.40;7.95;;;;;;;-13.63;100.00;99632.09;5032174;28;20126;-60
2021/12/22 03:21:23;;;;;;;18.03;7.17;;;;;;;-13.82;100.00;99626.50;5022399;28;20048;-60
2021/12/22 03:24:09;;;;;;;19.85;7.45;;;;;;;-13.70;100.00;99630.78;5051880;28;20051;-61
2021/12/22 03:26:54;;;;;;;25.00;7.83;;;;;;;-13.46;100.00;99631.63;5028845;28;20044;-61
2021/12/22 03:29:40;;;;;;;21.10;7.67;;;;;;;-13.38;100.00;99623.72;5039138;28;20051;-59
2021/12/22 03:32:25;;;;;;;22.53;7.87;;;;;;;-13.28;100.00;99618.50;5047508;28;20103;-58
2021/12/22 03:35:18;;;;;;;21.30;7.77;;;;;;;-13.13;100.00;99613.56;5043135;28;20047;-61
2021/12/22 03:38:04;;;;;;;18.90;6.60;;;;;;;-13.03;100.00;99623.59;5027868;28;20060;-59
2021/12/22 03:40:49;;;;;;;24.60;7.90;;;;;;;-12.97;100.00;99631.66;5037894;28;20036;-68
2021/12/22 03:43:35;;;;;;;21.20;8.33;;;;;;;-13.07;100.00;99630.16;5054643;28;20056;-66
2021/12/22 03:46:19;;;;;;;19.87;7.80;;;;;;;-13.06;100.00;99631.91;5043758;28;20048;-61
2021/12/22 03:49:06;;;;;;;26.13;8.38;;;;;;;-13.66;100.00;99640.41;5028221;28;20932;-61
2021/12/22 03:51:50;;;;;;;20.87;7.10;;;;;;;-14.40;100.00;99638.34;5045914;28;20132;-63
2021/12/22 03:54:35;;;;;;;18.27;7.32;;;;;;;-15.17;100.00;99640.13;5045392;28;20459;-60
2021/12/22 03:57:19;;;;;;;17.48;6.78;;;;;;;-15.57;100.00;99642.03;5045491;28;20099;-60
2021/12/22 04:00:07;;;;;;;20.33;7.70;;;;;;;-15.15;100.00;99638.59;5037865;28;20383;-59
2021/12/22 04:02:52;;;;;;;20.37;7.03;;;;;;;-14.90;100.00;99646.41;5031965;28;20072;-63
2021/12/22 04:05:36;;;;;;;24.20;7.10;;;;;;;-14.40;100.00;99628.16;5046569;28;20167;-63
2021/12/22 04:08:22;;;;;;;18.17;6.40;;;;;;;-14.19;100.00;99640.78;5025414;28;20043;-62
2021/12/22 04:11:07;;;;;;;23.43;6.63;;;;;;;-13.76;100.00;99637.09;5039836;28;20055;-65
2021/12/22 04:13:51;;;;;;;20.52;5.88;;;;;;;-13.57;100.00;99629.97;5044949;28;20082;-61
2021/12/22 04:16:36;;;;;;;18.52;5.70;;;;;;;-13.63;100.00;99638.06;5043916;28;21067;-60
2021/12/22 04:19:21;;;;;;;13.23;5.97;;;;;;;-14.15;100.00;99624.03;5044953;28;20098;-60
2021/12/22 04:22:06;;;;;;;19.50;6.22;;;;;;;-14.21;100.00;99644.03;5046139;28;20059;-75
2021/12/22 04:24:51;;;;;;;15.27;6.27;;;;;;;-14.18;100.00;99654.38;5048685;28;20048;-63
2021/12/22 04:27:37;;;;;;;12.73;5.93;;;;;;;-13.91;100.00;99652.19;5048537;28;20468;-69
2021/12/22 04:30:25;;;;;;;16.00;6.13;;;;;;;-13.67;100.00;99650.47;5029971;28;20533;-61
2021/12/22 04:33:09;;;;;;;16.10;5.43;;;;;;;-13.83;100.00;99645.97;5044927;28;20202;-61
2021/12/22 04:35:55;;;;;;;21.15;6.38;;;;;;;-14.00;100.00;99648.97;5049712;28;20417;-76
2021/12/22 04:38:40;;;;;;;17.77;5.90;;;;;;;-14.15;100.00;99644.41;5062122;28;20611;-54
2021/12/22 04:41:25;;;;;;;17.77;6.43;;;;;;;-14.51;100.00;99645.19;5049208;28;20056;-75
2021/12/22 04:44:10;;;;;;;21.73;6.80;;;;;;;-14.66;100.00;99650.78;5019390;28;20095;-65
2021/12/22 04:46:55;;;;;;;17.38;6.43;;;;;;;-14.75;100.00;99645.91;5046881;28;20129;-61
2021/12/22 04:49:40;;;;;;;20.85;6.38;;;;;;;-14.91;100.00;99654.81;5049632;28;20178;-61
2021/12/22 04:52:31;;;;;;;20.73;7.70;;;;;;;-15.17;100.00;99650.28;5062117;28;20052;-62
2021/12/22 04:55:16;;;;;;;23.90;9.00;;;;;;;-14.69;100.00;99648.91;5049765;28;20115;-66
2021/12/22 04:58:01;;;;;;;19.73;7.17;;;;;;;-14.61;100.00;99631.69;5048453;28;20132;-64
2021/12/22 05:00:45;;;;;;;16.80;6.90;;;;;;;-14.29;100.00;99645.13;5032244;28;20087;-62
2021/12/22 05:03:30;;;;;;;21.92;7.90;;;;;;;-13.76;100.00;99648.19;5047093;28;20194;-61
2021/12/22 05:06:15;;;;;;;19.17;6.83;;;;;;;-13.59;100.00;99647.72;5061093;28;20048;-66
2021/12/22 05:08:59;;;;;;;18.02;6.18;;;;;;;-13.70;100.00;99646.06;5068879;28;20080;-65
2021/12/22 05:11:44;;;;;;;20.60;7.60;;;;;;;-14.15;100.00;99642.75;5018980;28;20460;-63
2021/12/22 05:14:29;;;;;;;24.15;8.15;;;;;;;-14.44;100.00;99647.44;5047902;28;20056;-69
2021/12/22 05:17:39;;;;;;;23.08;7.93;;;;;;;-14.65;100.00;99656.00;5047695;28;20186;-66
2021/12/22 05:20:24;;;;;;;28.33;7.10;;;;;;;-14.25;100.00;99642.88;5027923;28;20045;-64
2021/12/22 05:23:10;;;;;;;22.97;7.90;;;;;;;-14.07;100.00;99656.94;5026596;28;20472;-68
2021/12/22 05:25:54;;;;;;;21.60;7.15;;;;;;;-14.15;100.00;99655.50;5028823;28;20460;-61
2021/12/22 05:28:39;;;;;;;24.10;8.38;;;;;;;-14.45;100.00;99654.94;5041570;28;20523;-60
2021/12/22 05:31:24;;;;;;;19.13;7.80;;;;;;;-13.94;100.00;99643.44;5049623;28;20472;-64
2021/12/22 05:34:10;;;;;;;20.50;6.43;;;;;;;-14.03;100.00;99642.75;5045164;28;20146;-67
2021/12/22 05:36:55;;;;;;;20.27;7.40;;;;;;;-13.93;100.00;99652.84;5028399;28;20063;-66
2021/12/22 05:39:40;;;;;;;25.27;8.23;;;;;;;-13.78;100.00;99651.41;5041351;28;20068;-63
2021/12/22 05:42:26;;;;;;;25.40;7.72;;;;;;;-13.62;100.00;99654.25;5027791;28;20052;-68
2021/12/22 05:45:10;;;;;;;22.87;7.47;;;;;;;-13.42;100.00;99654.00;5029333;28;20044;-63
2021/12/22 05:47:55;;;;;;;18.98;7.15;;;;;;;-13.47;100.00;99662.97;5063837;28;20068;-64
2021/12/22 05:50:46;;;;;;;28.45;8.57;;;;;;;-13.40;100.00;99645.69;5050891;28;20417;-61
2021/12/22 05:53:31;;;;;;;23.43;8.63;;;;;;;-13.18;100.00;99638.72;5013485;28;20484;-60
2021/12/22 05:56:15;;;;;;;22.73;7.90;;;;;;;-12.99;100.00;99648.53;5028756;28;20574;-67
2021/12/22 05:59:00;;;;;;;18.60;7.37;;;;;;;-13.03;100.00;99647.44;5035706;28;20099;-63
2021/12/22 06:01:45;;;;;;;19.58;7.28;;;;;;;-13.19;100.00;99647.16;5046417;28;20135;-61
2021/12/22 06:04:30;;;;;;;22.70;7.87;;;;;;;-13.55;100.00;99651.34;5048204;28;20055;-59
2021/12/22 06:07:14;;;;;;;22.27;8.25;;;;;;;-13.78;100.00;99654.81;5032843;28;20039;-59
2021/12/22 06:09:59;;;;;;;24.00;8.30;;;;;;;-14.32;100.00;99652.53;5048022;28;20060;-59
2021/12/22 06:12:43;;;;;;;21.10;8.18;;;;;;;-14.74;100.00;99664.59;5048761;28;20102;-65
2021/12/22 06:15:28;;;;;;;23.10;8.48;;;;;;;-15.13;100.00;99661.59;5046853;28;20197;-71
2021/12/22 06:18:13;;;;;;;24.27;8.00;;;;;;;-14.88;100.00;99660.13;5031956;28;20095;-63
2021/12/22 06:20:58;;;;;;;23.83;8.13;;;;;;;-14.71;100.00;99667.38;5044596;28;20471;-58
2021/12/22 06:23:43;;;;;;;25.30;8.60;;;;;;;-14.72;100.00;99655.44;5036735;28;20060;-60
2021/12/22 06:26:27;;;;;;;21.30;9.35;;;;;;;-14.67;100.00;99651.56;5052404;28;20039;-58
2021/12/22 06:29:12;;;;;;;22.00;8.20;;;;;;;-14.51;100.00;99660.47;5042177;28;20114;-58
2021/12/22 06:31:57;;;;;;;25.58;7.53;;;;;;;-14.03;100.00;99660.59;5045230;28;20186;-67
2021/12/22 06:34:41;;;;;;;23.40;7.93;;;;;;;-13.81;100.00;99656.28;5035641;28;20059;-61
2021/12/22 06:37:26;;;;;;;22.73;8.15;;;;;;;-13.41;100.00;99655.75;5031181;28;20072;-56
2021/12/22 06:40:13;;;;;;;24.58;8.82;;;;;;;-13.28;100.00;99661.84;5026516;28;20048;-58
2021/12/22 06:42:57;;;;;;;26.47;8.93;;;;;;;-13.08;100.00;99637.69;5028531;28;20548;-59
2021/12/22 06:45:42;;;;;;;24.20;8.18;;;;;;;-12.95;100.00;99658.13;5039655;28;20056;-57
2021/12/22 06:48:27;;;;;;;20.73;8.47;;;;;;;-13.05;100.00;99660.88;5055347;28;20059;-61
2021/12/22 06:51:11;;;;;;;21.48;7.93;;;;;;;-13.25;100.00;99645.84;5047567;28;20040;-54
2021/12/22 06:53:56;;;;;;;19.58;8.25;;;;;;;-13.14;100.00;99656.00;5046866;28;20221;-56
2021/12/22 06:56:41;;;;;;;34.50;9.98;;;;;;;-13.15;100.00;99656.78;5047041;28;20090;-59
2021/12/22 06:59:26;;;;;;;24.33;9.13;;;;;;;-13.15;100.00;99661.91;5037068;28;20102;-61
2021/12/22 07:02:11;;;;;;;25.77;8.57;;;;;;;-13.08;100.00;99647.91;5029570;28;20075;-59
2021/12/22 07:04:56;;;;;;;22.43;8.87;;;;;;;-12.76;100.00;99656.94;5040754;28;20048;-55
2021/12/22 07:07:41;;;;;;;24.20;9.00;;;;;;;-12.51;100.00;99675.66;5047869;28;20044;-59
2021/12/22 07:10:25;;;;;;;22.40;8.70;;;;;;;-12.38;100.00;99674.84;5027558;28;20141;-58
2021/12/22 07:13:14;;;;;;;23.30;8.48;;;;;;;-12.26;100.00;99666.28;5040347;28;20581;-58
2021/12/22 07:15:58;;;;;;;32.97;10.00;;;;;;;-12.01;100.00;99677.38;5041156;28;20121;-56
2021/12/22 07:18:42;;;;;;;25.77;10.52;;;;;;;-11.78;100.00;99671.19;5040391;28;20055;-63
2021/12/22 07:21:27;;;;;;;27.50;10.20;;;;;;;-11.75;100.00;99679.06;5046382;28;20056;-65
2021/12/22 07:24:12;;;;;;;29.27;11.30;;;;;;;-11.82;100.00;99680.34;5030536;28;20056;-62
2021/12/22 07:26:56;;;;;;;31.17;11.40;;;;;;;-11.61;100.00;99691.94;5047326;28;20127;-68
2021/12/22 07:29:41;;;;;;;18.75;8.93;;;;;;;-11.78;100.00;99689.97;5013375;28;20060;-62
2021/12/22 07:32:27;;;;;;;23.85;8.82;;;;;;;-11.80;100.00;99686.41;5018529;28;20249;-63
2021/12/22 07:35:46;;;;;;;20.67;8.38;;;;;;;-11.66;100.00;99694.97;5018055;28;20044;-65
2021/12/22 07:38:39;;;;;;;21.40;7.07;;;;;;;-11.77;100.00;99698.50;5029387;28;20099;-68
2021/12/22 07:41:24;;;;;;;20.05;8.70;;;;;;;-11.90;100.00;99699.41;5043106;28;20769;-65
2021/12/22 07:44:09;;;;;;;15.70;7.03;;;;;;;-11.73;100.00;99703.03;5027652;28;20179;-65
2021/12/22 07:46:53;;;;;;;12.63;5.53;;;;;;;-11.57;100.00;99708.31;5014848;28;20052;-68
2021/12/22 07:49:38;;;;;;;13.63;5.65;;;;;;;-11.88;99.80;99709.69;5052385;28;20421;-70
2021/12/22 07:52:27;;;;;;;13.38;4.88;;;;;;;-11.85;99.49;99695.47;5045491;28;20095;-71
2021/12/22 07:55:11;;;;;;;14.85;5.22;;;;;;;-11.25;99.57;99701.91;5045129;28;20537;-63
2021/12/22 07:57:56;;;;;;;15.77;5.63;;;;;;;-10.86;96.62;99698.38;5045240;28;20107;-61
2021/12/22 08:00:40;;;;;;;12.00;5.60;;;;;;;-11.08;94.14;99693.59;5056768;28;20044;-65
2021/12/22 08:03:26;;;;;;;17.63;6.03;;;;;;;-10.94;92.95;99697.00;5027645;28;20167;-61
2021/12/22 08:06:11;;;;;;;16.55;5.07;;;;;;;-9.75;90.07;99709.28;5029072;28;20044;-63
2021/12/22 08:08:57;;;;;;;14.02;5.10;;;;;;;-8.36;85.60;99704.28;5041736;28;20562;-62
2021/12/22 08:11:43;;;;;;;15.23;5.10;;;;;;;-7.67;79.47;99704.38;5050413;28;20190;-62
2021/12/22 08:14:27;;;;;;;12.05;5.63;;;;;;;-7.22;74.62;99711.75;5056766;28;20122;-63
2021/12/22 08:17:13;;;;;;;12.18;4.47;;;;;;;-6.75;67.83;99709.75;5045039;28;20056;-60
2021/12/22 08:20:04;;;;;;;12.70;5.40;;;;;;;-6.97;64.91;99712.16;5043809;28;20777;-62
2021/12/22 08:22:49;;;;;;;12.55;4.40;;;;;;;-7.19;63.28;99689.63;5040684;28;20048;-63
2021/12/22 08:25:34;;;;;;;15.60;5.63;;;;;;;-6.47;62.52;99697.28;5058755;28;20055;-62
2021/12/22 08:28:19;;;;;;;14.50;5.13;;;;;;;-5.53;58.83;99692.81;5029845;28;20174;-60
2021/12/22 08:31:05;;;;;;;16.58;4.78;;;;;;;-4.79;54.43;99698.41;5043658;28;20461;-63
2021/12/22 08:33:49;;;;;;;12.55;4.60;;;;;;;-4.91;49.86;99693.59;5043133;28;20094;-62
2021/12/22 08:39:38;;;;;;;12.80;5.13;;;;;;;-3.06;46.59;99700.31;5045634;28;20079;-64
2021/12/22 08:42:24;;;;;;;10.35;4.57;;;;;;;-2.75;42.68;99697.84;5047032;28;20186;-64
2021/12/22 08:45:09;;;;;;;11.30;4.70;;;;;;;-1.81;40.44;99708.47;5043252;28;20154;-64
2021/12/22 08:47:54;;;;;;;12.82;4.78;;;;;;;-1.39;37.70;99695.72;5048125;28;20118;-63
2021/12/22 08:50:38;;;;;;;8.50;4.60;;;;;;;-1.37;34.32;99694.03;5045051;28;20532;-67
2021/12/22 08:53:24;;;;;;;10.38;4.97;;;;;;;-1.07;33.46;99705.22;5042630;28;20063;-64
2021/12/22 08:56:09;;;;;;;9.85;5.28;;;;;;;-0.73;32.08;99690.44;5055653;28;20063;-63
2021/12/22 08:58:54;;;;;;;14.55;5.22;;;;;;;-0.18;31.85;99706.44;5029853;28;20234;-63
2021/12/22 09:01:39;;;;;;;12.00;4.72;;;;;;;-0.50;31.83;99702.25;5029906;28;20079;-63
2021/12/22 09:04:27;;;;;;;9.55;4.78;;;;;;;-0.87;30.99;99678.81;5044687;28;20135;-66
2021/12/22 09:07:13;;;;;;;10.63;4.95;;;;;;;-0.84;32.41;99701.44;5043986;28;20052;-60
2021/12/22 09:09:59;;;;;;;11.27;4.55;;;;;;;-0.91;29.77;99708.22;5030542;28;20074;-62
2021/12/22 09:12:44;;;;;;;9.98;4.80;;;;;;;-0.53;30.49;99696.97;5046348;28;20047;-59
2021/12/22 09:15:29;;;;;;;9.25;4.70;;;;;;;-1.14;30.22;99701.56;5046761;28;20091;-63
2021/12/22 09:18:15;;;;;;;8.43;4.60;;;;;;;-2.01;30.44;99691.44;5041319;28;20465;-63
2021/12/22 09:21:01;;;;;;;12.38;5.07;;;;;;;-2.12;31.03;99690.28;5045604;28;20408;-64
2021/12/22 09:23:45;;;;;;;10.25;4.95;;;;;;;-1.72;31.49;99687.03;5060077;28;20068;-65
2021/12/22 09:26:30;;;;;;;14.77;5.47;;;;;;;-1.14;30.78;99691.16;5044004;28;20447;-65
2021/12/22 09:29:15;;;;;;;8.40;4.13;;;;;;;-2.09;30.69;99690.34;5043322;28;20052;-60
2021/12/22 09:32:00;;;;;;;11.00;4.90;;;;;;;-1.54;30.32;99697.94;5032624;28;20527;-64
2021/12/22 09:34:49;;;;;;;12.67;4.90;;;;;;;-0.95;30.05;99695.13;5032799;28;20048;-63
2021/12/22 09:37:37;;;;;;;10.07;5.38;;;;;;;-0.72;30.31;99696.50;5033742;28;20107;-64
2021/12/22 09:40:21;;;;;;;10.38;4.68;;;;;;;-0.49;28.57;99695.31;5020075;28;20055;-60
2021/12/22 09:43:06;;;;;;;10.52;4.68;;;;;;;-0.79;28.81;99700.69;5046488;28;20126;-64
2021/12/22 09:45:57;;;;;;;11.90;5.30;;;;;;;-0.05;28.23;99699.75;5043879;28;20374;-63
2021/12/22 09:49:08;;;;;;;7.45;4.40;;;;;;;0.47;27.66;99699.91;5059449;28;20059;-59
2021/12/22 09:55:00;;;;;;;11.05;4.90;;;;;;;-0.39;27.29;99698.16;5046783;28;20048;-65
2021/12/22 09:57:46;;;;;;;10.82;5.03;;;;;;;-0.29;27.46;99697.50;5046071;28;20048;-66
2021/12/22 10:00:34;;;;;;;9.73;4.82;;;;;;;-0.04;27.93;99702.38;5029194;28;20048;-63
2021/12/22 10:03:22;;;;;;;8.93;4.57;;;;;;;0.19;27.45;99709.81;5030572;28;20060;-65
2021/12/22 10:06:07;;;;;;;12.50;4.80;;;;;;;-0.40;27.04;99703.31;5041513;28;20096;-72
2021/12/22 10:09:00;;;;;;;8.85;4.63;;;;;;;-0.25;27.90;99706.25;5026570;28;20139;-64
2021/12/22 10:11:45;;;;;;;9.27;4.85;;;;;;;-0.62;28.12;99699.38;5048787;28;20052;-60
2021/12/22 10:14:30;;;;;;;10.02;4.53;;;;;;;-0.13;26.69;99706.53;5047550;28;20420;-64
2021/12/22 10:17:42;;;;;;;9.55;4.70;;;;;;;0.75;26.00;99699.56;5013250;28;20055;-69
2021/12/22 10:20:27;;;;;;;11.98;5.03;;;;;;;0.21;25.58;99693.34;5046179;28;20048;-64
2021/12/22 10:23:27;;;;;;;8.20;4.28;;;;;;;0.39;26.85;99701.50;5030409;28;20543;-62
2021/12/22 10:26:25;;;;;;;8.88;4.05;;;;;;;-0.59;27.77;99698.56;5045983;28;20052;-61
2021/12/22 10:29:10;;;;;;;10.90;4.82;;;;;;;-0.76;26.58;99703.38;5031027;28;20523;-62
2021/12/22 10:32:08;;;;;;;8.38;4.30;;;;;;;-0.27;26.76;99700.16;5046183;28;20055;-61
2021/12/22 10:35:07;;;;;;;10.70;4.97;;;;;;;-0.77;26.69;99706.84;5046914;28;20171;-61
2021/12/22 10:37:59;;;;;;;9.38;4.35;;;;;;;-0.48;26.49;99704.88;4989660;28;20056;-62
2021/12/22 10:40:48;;;;;;;9.80;4.57;;;;;;;-1.55;27.59;99703.94;5040253;28;20044;-67
2021/12/22 10:43:39;;;;;;;9.68;4.93;;;;;;;-1.53;27.38;99705.78;5031665;28;20106;-60
2021/12/22 10:46:31;;;;;;;7.22;4.03;;;;;;;-1.12;27.20;99697.31;5030221;28;20064;-62
2021/12/22 10:49:20;;;;;;;9.20;4.25;;;;;;;-1.88;27.22;99690.94;5017156;28;20118;-66
2021/12/22 10:52:05;;;;;;;8.65;4.60;;;;;;;-1.70;27.49;99707.03;5045923;28;20052;-70
2021/12/22 10:54:51;;;;;;;9.07;4.75;;;;;;;-2.40;27.51;99705.00;5046153;28;20056;-63
2021/12/22 10:57:39;;;;;;;9.50;4.63;;;;;;;-2.92;28.38;99702.53;5029399;28;20083;-61
2021/12/22 11:00:25;;;;;;;10.15;4.18;;;;;;;-3.73;29.87;99704.97;5029091;28;20068;-65
2021/12/22 11:03:16;;;;;;;9.95;4.07;;;;;;;-4.77;31.92;99702.78;5045776;28;20120;-66
2021/12/22 11:06:04;;;;;;;12.77;4.30;;;;;;;-4.88;32.96;99707.56;5058325;28;20056;-67
2021/12/22 11:09:13;;;;;;;8.00;4.03;;;;;;;-5.11;34.99;99710.94;5042563;28;20045;-61
2021/12/22 11:12:04;;;;;;;7.82;4.10;;;;;;;-5.76;36.70;99722.84;5043035;28;20190;-67
2021/12/22 11:14:51;;;;;;;10.27;4.47;;;;;;;-5.51;37.63;99719.56;5044647;28;20102;-63
2021/12/22 11:17:39;;;;;;;12.52;4.65;;;;;;;-4.65;36.38;99717.88;5044229;28;20051;-64
2021/12/22 11:20:25;;;;;;;11.25;5.10;;;;;;;-4.42;34.62;99724.81;5040088;28;20060;-64
2021/12/22 11:23:13;;;;;;;9.77;4.40;;;;;;;-4.29;33.53;99719.28;5046296;28;20546;-60
2021/12/22 11:25:58;;;;;;;14.05;5.38;;;;;;;-5.56;34.42;99718.50;5029307;28;20146;-61
2021/12/22 11:28:44;;;;;;;;;;;;;;;-5.62;35.92;99716.53;5029248;28;20051;-60
2021/12/22 11:31:29;;;;;;;10.35;4.45;;;;;;;-5.82;35.97;99730.34;5046463;28;20375;-60
2021/12/22 11:34:17;;;;;;;9.32;4.78;;;;;;;-5.95;37.05;99737.47;5043657;28;20066;-67
2021/12/22 11:37:11;;;;;;;18.42;6.07;;;;;;;-5.76;37.61;99734.84;5045557;28;20411;-70
2021/12/22 11:39:57;;;;;;;13.80;5.30;;;;;;;-6.62;38.57;99735.25;5043613;28;20040;-62
2021/12/22 11:42:42;;;;;;;14.32;5.90;;;;;;;-7.25;39.97;99742.50;5030169;28;20107;-62
2021/12/22 11:45:27;;;;;;;13.05;5.75;;;;;;;-7.55;42.56;99759.94;5017529;28;20511;-62
2021/12/22 11:48:13;;;;;;;10.68;4.97;;;;;;;-7.92;44.78;99764.00;5041701;28;20051;-60
2021/12/22 11:50:59;;;;;;;11.88;5.05;;;;;;;-8.06;46.35;99769.25;5043298;28;20055;-58
2021/12/22 11:54:10;;;;;;;12.27;5.47;;;;;;;-8.17;48.49;99767.78;5029685;28;20094;-62
2021/12/22 11:56:58;;;;;;;16.02;5.72;;;;;;;-8.41;51.96;99770.00;5040828;28;20587;-58
2021/12/22 11:59:43;;;;;;;11.85;5.47;;;;;;;-8.98;53.63;99755.66;5046783;28;20087;-64
2021/12/22 12:02:34;;;;;;;12.70;5.28;;;;;;;-9.21;58.87;99769.78;5031416;28;20099;-66
2021/12/22 12:05:23;;;;;;;11.63;4.80;;;;;;;-9.40;59.67;99772.09;5028632;28;20536;-63
2021/12/22 12:08:17;;;;;;;14.27;4.82;;;;;;;-9.64;61.15;99769.78;5045518;28;20056;-63
2021/12/22 12:11:06;;;;;;;15.38;5.68;;;;;;;-9.77;61.12;99781.03;5028936;28;20051;-61
2021/12/22 12:14:03;;;;;;;14.20;4.88;;;;;;;-9.82;61.57;99776.44;5041974;28;20052;-69
2021/12/22 12:22:48;;;;;;;11.48;3.60;;;;;;;-11.68;64.37;99773.22;5034473;28;20138;-61
2021/12/22 12:25:36;;;;;;;;;;;;;;;-11.41;65.35;99775.88;5031880;28;20099;-64
2021/12/22 12:28:22;;;;;;;14.57;4.18;;;;;;;-11.65;66.07;99786.22;5031281;28;19939;-58
2021/12/22 12:31:08;;;;;;;10.48;3.65;;;;;;;-12.02;67.41;99788.03;5042669;28;20072;-59
2021/12/22 12:33:52;;;;;;;13.00;3.90;;;;;;;-12.41;69.27;99792.06;5044526;28;20047;-59
2021/12/22 12:36:39;;;;;;;13.60;3.90;;;;;;;-12.00;70.28;99781.31;5025985;28;20069;-60
2021/12/22 12:39:53;;;;;;;10.68;4.18;;;;;;;-11.84;70.22;99786.66;5026952;28;20056;-63
2021/12/22 12:43:00;;;;;;;14.00;4.30;;;;;;;-11.76;69.79;99799.94;5039469;28;20190;-69
2021/12/22 12:45:48;;;;;;;11.95;4.60;;;;;;;-12.03;69.60;99791.31;5033960;28;20088;-57
2021/12/22 12:48:33;;;;;;;13.52;4.63;;;;;;;-12.26;70.72;99796.53;5036784;28;20048;-63
2021/12/22 12:51:20;;;;;;;10.23;3.92;;;;;;;-12.40;70.56;99787.06;5033666;28;20059;-71
2021/12/22 12:54:08;;;;;;;10.77;3.38;;;;;;;-12.31;71.24;99810.69;5036265;28;20076;-64
2021/12/22 12:56:59;;;;;;;15.70;3.33;;;;;;;-12.34;71.40;99809.59;5030640;28;20075;-66
2021/12/22 12:59:46;;;;;;;9.60;3.67;;;;;;;-12.23;70.85;99811.22;5030170;28;20118;-68
2021/12/22 13:02:34;;;;;;;11.63;4.30;;;;;;;-12.52;71.54;99816.88;5050382;28;20532;-60
2021/12/22 13:05:19;;;;;;;12.35;4.10;;;;;;;-12.53;72.39;99826.97;5046620;28;20114;-64
2021/12/22 13:08:06;;;;;;;10.48;3.67;;;;;;;-12.77;73.39;99831.25;5049196;28;20080;-68
2021/12/22 13:10:57;;;;;;;10.73;3.78;;;;;;;-12.65;74.63;99834.66;5034490;28;20096;-64
2021/12/22 13:16:45;;;;;;;10.02;4.35;;;;;;;-12.59;75.99;99835.06;5031873;28;20094;-60
2021/12/22 13:19:43;;;;;;;15.50;5.22;;;;;;;-12.75;76.54;99839.88;5048395;28;20047;-60